Flight Briefing for CPX660

Departure Arrival
Miami International Airport (KMIA)
Click to view FAA NOTAMS
Tampa International Airport (KTPA)
Click to view FAA NOTAMS
Departure Time Arrival Time
N/A N/A
Aircraft Distance
SF340AF 177nm
Departure METAR Arrival METAR
KMIA 250353Z 06008KT 10SM FEW035 26/18 A3010 RMK AO2 SLP192 T02560178 KTPA 250353Z 10007G15KT 060V120 10SM CLR 27/18 A3012 RMK AO2 SLP200 T02670178 $
Suggested Route
WINCO2 WINCO V97 BRDGE BRDGE8


View recent IFR Routes data
Notes



Charts and Procedures

Charts for KMIA
No chart available
Charts for KTPA
No chart available

Windy.com Weather Map